Time;durP1;ratioP1;P1;durP2;ratioP2;P2;SDS_P1;SDS_P2;PMS_P1;PMS_P2;Temp;Humidity;BMP_temperature;BMP_pressure;BME280_temperature;BME280_humidity;BME280_pressure;Samples;Min_cycle;Max_cycle;Signal;HPM_P1;HPM_P2
2022/03/16 00:00:10;;;;;;;14.40;7.03;;;;;;;-142.75;100.00;78722.41;5032593;28;20017;-71
2022/03/16 00:02:35;;;;;;;12.97;7.40;;;;;;;-142.75;100.00;78724.38;5031156;28;20026;-67
2022/03/16 00:05:00;;;;;;;12.40;7.30;;;;;;;-142.75;100.00;78716.50;5031377;28;20083;-69
2022/03/16 00:07:26;;;;;;;13.88;7.75;;;;;;;-142.75;100.00;78710.59;5032754;28;20287;-69
2022/03/16 00:09:51;;;;;;;13.93;7.57;;;;;;;-142.75;100.00;78702.72;5030881;28;20116;-70
2022/03/16 00:12:17;;;;;;;16.75;7.70;;;;;;;-142.75;100.00;78704.69;5031918;28;20029;-66
2022/03/16 00:14:43;;;;;;;15.18;7.80;;;;;;;-142.75;100.00;78698.78;5032449;28;20025;-68
2022/03/16 00:17:09;;;;;;;;;;;;;;;-142.75;100.00;78692.88;5031748;28;20108;-69
2022/03/16 00:19:35;;;;;;;18.23;7.10;;;;;;;-142.75;100.00;78692.88;5030703;28;19995;-68
2022/03/16 00:22:02;;;;;;;;;;;;;;;-142.75;100.00;78694.84;5033001;28;20467;-69
2022/03/16 00:24:27;;;;;;;14.63;7.13;;;;;;;-142.75;100.00;78700.75;5031767;28;19917;-69
2022/03/16 00:26:53;;;;;;;14.63;7.22;;;;;;;-142.75;100.00;78692.88;5032175;28;20411;-69
2022/03/16 00:29:19;;;;;;;15.35;7.82;;;;;;;-142.75;100.00;78694.84;5030710;28;20079;-69
2022/03/16 00:31:44;;;;;;;13.30;7.07;;;;;;;-142.75;100.00;78692.88;5031124;28;20067;-69
2022/03/16 00:34:10;;;;;;;13.80;6.88;;;;;;;-142.75;100.00;78692.88;5032085;28;20025;-69
2022/03/16 00:36:35;;;;;;;12.98;6.75;;;;;;;-142.75;100.00;78690.91;5031920;28;20021;-68
2022/03/16 00:39:00;;;;;;;14.40;6.88;;;;;;;-142.75;100.00;78696.81;5030293;28;20026;-69
2022/03/16 00:41:26;;;;;;;13.10;6.82;;;;;;;-142.75;100.00;78700.75;5030884;28;20059;-69
2022/03/16 00:43:52;;;;;;;13.07;6.40;;;;;;;-142.75;100.00;78690.91;5032791;28;20040;-71
2022/03/16 00:46:18;;;;;;;12.23;6.53;;;;;;;-142.75;100.00;78688.94;5032367;28;20416;-70
2022/03/16 00:48:43;;;;;;;16.98;6.53;;;;;;;-142.75;100.00;78692.88;5030308;28;20121;-68
2022/03/16 00:51:09;;;;;;;14.27;6.87;;;;;;;-142.75;100.00;78690.91;5031872;28;20017;-69
2022/03/16 00:53:34;;;;;;;;;;;;;;;-142.75;100.00;78688.94;5030710;28;20738;-68
2022/03/16 00:56:04;;;;;;;10.80;6.10;;;;;;;-142.75;100.00;78704.69;5031845;28;19963;-69
2022/03/16 00:58:29;;;;;;;13.00;6.90;;;;;;;-142.75;100.00;78700.75;5031240;28;20033;-69
2022/03/16 01:00:55;;;;;;;11.43;6.32;;;;;;;-142.75;100.00;78708.63;5031814;28;20025;-70
2022/03/16 01:03:20;;;;;;;12.85;6.55;;;;;;;-142.75;100.00;78708.63;5031478;28;20017;-69
2022/03/16 01:05:46;;;;;;;14.50;6.85;;;;;;;-142.75;100.00;78720.44;5030295;28;20036;-69
2022/03/16 01:08:12;;;;;;;;;;;;;;;-142.75;100.00;78720.44;5031558;28;20028;-68
2022/03/16 01:10:38;;;;;;;16.37;7.13;;;;;;;-142.75;100.00;78736.19;5031514;28;19995;-69
2022/03/16 01:13:03;;;;;;;13.95;7.32;;;;;;;-142.75;100.00;78734.22;5030908;28;20021;-69
2022/03/16 01:15:28;;;;;;;14.70;7.88;;;;;;;-142.75;100.00;78728.31;5029955;28;20573;-69
2022/03/16 01:17:53;;;;;;;15.25;8.32;;;;;;;-142.75;100.00;78728.31;5029955;28;20020;-70
2022/03/16 01:20:19;;;;;;;13.20;7.82;;;;;;;-142.75;100.00;78732.25;5031242;28;20078;-69
2022/03/16 01:22:44;;;;;;;13.40;7.00;;;;;;;-142.75;100.00;78732.25;5031277;28;20115;-69
2022/03/16 01:25:10;;;;;;;12.65;7.68;;;;;;;-142.75;100.00;78736.19;5030643;28;20055;-71
2022/03/16 01:27:36;;;;;;;15.80;8.32;;;;;;;-142.75;100.00;78742.09;5031043;28;20148;-69
2022/03/16 01:30:01;;;;;;;14.38;8.13;;;;;;;-142.75;100.00;78740.13;5029609;28;20026;-69
2022/03/16 01:32:26;;;;;;;16.83;7.88;;;;;;;-142.75;100.00;78753.94;5029701;28;20574;-71
2022/03/16 01:34:52;;;;;;;18.50;8.85;;;;;;;-142.75;100.00;78759.84;5030846;28;20559;-68
2022/03/16 01:37:17;;;;;;;16.50;8.55;;;;;;;-142.75;100.00;78769.69;5031022;28;20028;-70
2022/03/16 01:39:42;;;;;;;15.18;8.18;;;;;;;-142.75;100.00;78767.72;5029356;28;20602;-68
2022/03/16 01:42:08;;;;;;;19.37;8.93;;;;;;;-142.75;100.00;78769.69;5030177;28;20021;-69
2022/03/16 01:44:42;;;;;;;16.92;9.45;;;;;;;-142.75;100.00;78763.78;5030813;28;20812;-68
2022/03/16 01:47:07;;;;;;;16.40;9.00;;;;;;;-142.75;100.00;78761.81;5028186;28;20037;-69
2022/03/16 01:49:32;;;;;;;15.10;8.48;;;;;;;-142.75;100.00;78761.81;5029681;28;20394;-69
2022/03/16 01:51:58;;;;;;;16.92;8.55;;;;;;;-142.75;100.00;78775.59;5030830;28;20021;-69
2022/03/16 01:54:23;;;;;;;17.38;8.52;;;;;;;-142.75;100.00;78775.59;5029316;28;20028;-69
2022/03/16 01:56:48;;;;;;;15.43;8.38;;;;;;;-142.75;100.00;78783.47;5029240;28;20060;-69
2022/03/16 01:59:14;;;;;;;19.93;9.80;;;;;;;-142.75;100.00;78795.28;5030375;28;20025;-67
2022/03/16 02:01:39;;;;;;;18.35;10.40;;;;;;;-142.75;100.00;78801.19;5030482;28;20294;-69
2022/03/16 02:04:04;;;;;;;20.25;9.45;;;;;;;-142.75;100.00;78809.06;5030402;28;20395;-69
2022/03/16 02:06:30;;;;;;;19.73;9.68;;;;;;;-142.75;100.00;78809.06;5029051;28;20159;-69
2022/03/16 02:08:55;;;;;;;20.77;9.27;;;;;;;-142.75;100.00;78814.97;5030092;28;20037;-69
2022/03/16 02:11:21;;;;;;;18.55;9.82;;;;;;;-142.75;100.00;78818.91;5030275;28;20280;-69
2022/03/16 02:13:47;;;;;;;18.17;8.45;;;;;;;-142.75;100.00;78818.91;5030918;28;20017;-68
2022/03/16 02:16:13;;;;;;;20.70;10.63;;;;;;;-142.75;100.00;78822.88;5030309;28;20509;-67
2022/03/16 02:18:38;;;;;;;15.83;8.97;;;;;;;-142.75;100.00;78830.75;5029984;28;20104;-70
2022/03/16 02:21:06;;;;;;;16.03;9.47;;;;;;;-142.75;100.00;78834.69;5030186;28;20315;-69
2022/03/16 02:23:32;;;;;;;19.80;10.73;;;;;;;-142.75;100.00;78826.81;5029930;28;20284;-69
2022/03/16 02:25:57;;;;;;;16.38;9.85;;;;;;;-142.75;100.00;78824.84;5029839;28;20048;-69
2022/03/16 02:28:23;;;;;;;18.95;9.77;;;;;;;-142.75;100.00;78822.88;5028405;28;20043;-68
2022/03/16 02:30:49;;;;;;;22.30;10.60;;;;;;;-142.75;100.00;78830.75;5030096;28;20025;-69
2022/03/16 02:33:14;;;;;;;;;;;;;;;-142.75;100.00;78832.72;5030310;28;20391;-69
2022/03/16 02:35:40;;;;;;;21.97;10.83;;;;;;;-142.75;100.00;78842.56;5029956;28;19912;-69
2022/03/16 02:38:06;;;;;;;21.77;12.27;;;;;;;-142.75;100.00;78848.47;5029471;28;20122;-68
2022/03/16 02:40:32;;;;;;;24.75;11.40;;;;;;;-142.75;100.00;78862.25;5029796;28;20506;-69
2022/03/16 02:42:57;;;;;;;22.38;12.20;;;;;;;-142.75;100.00;78870.13;5030456;28;20446;-68
2022/03/16 02:45:22;;;;;;;25.45;12.35;;;;;;;-142.75;100.00;78866.19;5028407;28;20037;-69
2022/03/16 02:47:48;;;;;;;24.77;11.40;;;;;;;-142.75;100.00;78864.22;5029697;28;20494;-67
2022/03/16 02:50:18;;;;;;;22.50;12.57;;;;;;;-142.75;100.00;78858.31;5029727;28;20272;-69
2022/03/16 02:52:44;;;;;;;26.47;11.40;;;;;;;-142.75;100.00;78856.34;5029733;28;20029;-69
2022/03/16 02:55:10;;;;;;;24.33;11.70;;;;;;;-142.75;100.00;78850.44;5029640;28;20068;-69
2022/03/16 02:57:36;;;;;;;23.52;11.88;;;;;;;-142.75;100.00;78842.56;5029562;28;20475;-69
2022/03/16 03:00:03;;;;;;;24.60;12.40;;;;;;;-142.75;100.00;78842.56;5029270;28;20395;-69
2022/03/16 03:02:28;;;;;;;27.03;12.40;;;;;;;-142.75;100.00;78842.56;5029338;28;20446;-69
2022/03/16 03:04:54;;;;;;;22.90;11.47;;;;;;;-142.75;100.00;78848.47;5029404;28;20053;-69
2022/03/16 03:07:19;;;;;;;22.77;11.97;;;;;;;-142.75;100.00;78846.50;5028036;28;20276;-69
2022/03/16 03:09:44;;;;;;;27.35;13.65;;;;;;;-142.75;100.00;78850.44;5027335;28;20029;-69
2022/03/16 03:12:10;;;;;;;22.13;11.35;;;;;;;-142.75;100.00;78866.19;5029821;28;20394;-70
2022/03/16 03:14:36;;;;;;;22.83;11.85;;;;;;;-142.75;100.00;78870.13;5029920;28;20033;-69
2022/03/16 03:17:02;;;;;;;29.48;12.82;;;;;;;-142.75;100.00;78868.16;5029489;28;20056;-68
2022/03/16 03:19:27;;;;;;;26.60;12.20;;;;;;;-142.75;100.00;78879.97;5029168;28;20104;-69
2022/03/16 03:21:52;;;;;;;23.05;11.88;;;;;;;-142.75;100.00;78872.09;5028285;28;20116;-69
2022/03/16 03:24:18;;;;;;;25.38;12.13;;;;;;;-142.75;100.00;78878.00;5029046;28;20049;-69
2022/03/16 03:26:43;;;;;;;31.33;11.77;;;;;;;-142.75;100.00;78881.94;5028176;28;20380;-69
2022/03/16 03:29:10;;;;;;;25.60;13.30;;;;;;;-142.75;100.00;78895.75;5028946;28;20032;-71
2022/03/16 03:31:35;;;;;;;25.80;12.90;;;;;;;-142.75;100.00;78889.81;5029356;28;20558;-71
2022/03/16 03:34:01;;;;;;;26.70;12.95;;;;;;;-142.75;100.00;78885.88;5029114;28;20104;-68
2022/03/16 03:36:27;;;;;;;28.30;14.03;;;;;;;-142.75;100.00;78887.84;5029267;28;20096;-69
2022/03/16 03:38:52;;;;;;;23.08;12.75;;;;;;;-142.75;100.00;78887.84;5027644;28;20132;-68
2022/03/16 03:41:17;;;;;;;26.63;13.43;;;;;;;-142.75;100.00;78897.72;5027815;28;20398;-70
2022/03/16 03:43:43;;;;;;;30.13;13.88;;;;;;;-142.75;100.00;78893.78;5029782;28;20028;-69
2022/03/16 03:46:08;;;;;;;25.98;13.10;;;;;;;-142.75;100.00;78901.66;5029182;28;20083;-70
2022/03/16 03:48:33;;;;;;;30.25;14.32;;;;;;;-142.75;100.00;78901.66;5028928;28;20530;-68
2022/03/16 03:50:59;;;;;;;32.97;14.63;;;;;;;-142.75;100.00;78905.59;5028938;28;20036;-67
2022/03/16 03:53:24;;;;;;;26.23;13.40;;;;;;;-142.75;100.00;78905.59;5029041;28;20079;-68
2022/03/16 03:55:49;;;;;;;26.90;13.52;;;;;;;-142.75;100.00;78899.69;5029077;28;20102;-68
2022/03/16 03:58:15;;;;;;;28.50;14.35;;;;;;;-142.75;100.00;78893.78;5028710;28;20053;-70
2022/03/16 04:00:40;;;;;;;30.00;14.80;;;;;;;-142.75;100.00;78889.81;5028942;28;20466;-68
2022/03/16 04:03:06;;;;;;;25.52;13.70;;;;;;;-142.75;100.00;78893.78;5029014;28;20312;-69
2022/03/16 04:05:32;;;;;;;;;;;;;;;-142.75;100.00;78893.78;5028248;28;20029;-69
2022/03/16 04:07:57;;;;;;;30.47;14.63;;;;;;;-142.75;100.00;78889.81;5027570;28;19921;-69
2022/03/16 04:10:22;;;;;;;28.10;15.02;;;;;;;-142.75;100.00;78889.81;5028728;28;20022;-66
2022/03/16 04:12:49;;;;;;;30.15;15.30;;;;;;;-142.75;100.00;78883.91;5030247;28;20049;-72
2022/03/16 04:15:14;;;;;;;29.07;15.03;;;;;;;-142.75;100.00;78887.84;5032556;28;20104;-69
2022/03/16 04:17:40;;;;;;;27.27;14.32;;;;;;;-142.75;100.00;78885.88;5032361;28;20025;-68
2022/03/16 04:20:07;;;;;;;28.55;15.70;;;;;;;-142.75;100.00;78889.81;5030906;28;20105;-68
2022/03/16 04:22:32;;;;;;;35.37;16.90;;;;;;;-142.75;100.00;78895.75;5031042;28;20033;-69
2022/03/16 04:24:57;;;;;;;26.63;14.00;;;;;;;-142.75;100.00;78899.69;5031925;28;20040;-71
2022/03/16 04:27:23;;;;;;;30.57;15.77;;;;;;;-142.75;100.00;78897.72;5032152;28;20027;-67
2022/03/16 04:29:48;;;;;;;29.50;15.77;;;;;;;-142.75;100.00;78897.72;5030659;28;20283;-69
2022/03/16 04:32:14;;;;;;;35.10;16.15;;;;;;;-142.75;100.00;78899.69;5032330;28;20080;-69
2022/03/16 04:34:39;;;;;;;30.83;16.25;;;;;;;-142.75;100.00;78901.66;5032044;28;20026;-68
2022/03/16 04:37:04;;;;;;;35.33;16.98;;;;;;;-142.75;100.00;78909.53;5032077;28;20022;-69
2022/03/16 04:39:31;;;;;;;29.33;16.15;;;;;;;-142.75;100.00;78909.53;5030406;28;20082;-69
2022/03/16 04:41:56;;;;;;;;;;;;;;;-142.75;100.00;78913.47;5032320;28;20483;-69
2022/03/16 04:44:21;;;;;;;28.17;16.23;;;;;;;-142.75;100.00;78915.44;5031030;28;19912;-68
2022/03/16 04:46:46;;;;;;;34.17;16.57;;;;;;;-142.75;100.00;78913.47;5031891;28;20059;-69
2022/03/16 04:49:12;;;;;;;30.00;16.17;;;;;;;-142.75;100.00;78915.44;5031682;28;20681;-69
2022/03/16 04:51:37;;;;;;;30.38;15.77;;;;;;;-142.75;100.00;78911.50;5030638;28;20033;-69
2022/03/16 04:54:03;;;;;;;30.08;16.75;;;;;;;-142.75;100.00;78911.50;5013745;28;20029;-69
2022/03/16 04:56:29;;;;;;;27.48;14.95;;;;;;;-142.75;100.00;78923.31;5031734;28;20075;-69
2022/03/16 04:58:54;;;;;;;31.42;16.02;;;;;;;-142.75;100.00;78921.34;5031396;28;20088;-68
2022/03/16 05:01:20;;;;;;;33.60;17.38;;;;;;;-142.75;100.00;78921.34;5031727;28;20048;-70
2022/03/16 05:03:45;;;;;;;32.10;17.00;;;;;;;-142.75;100.00;78923.31;5029021;28;20061;-69
2022/03/16 05:06:10;;;;;;;29.52;15.80;;;;;;;-142.75;100.00;78923.31;5031587;28;20423;-69
2022/03/16 05:08:37;;;;;;;27.57;16.33;;;;;;;-142.75;100.00;78929.22;5031330;28;20503;-69
2022/03/16 05:11:03;;;;;;;29.17;15.67;;;;;;;-142.75;100.00;78927.25;5031282;28;20267;-68
2022/03/16 05:13:28;;;;;;;30.17;15.93;;;;;;;-142.75;100.00;78929.22;5032079;28;20450;-69
2022/03/16 05:15:54;;;;;;;29.48;15.80;;;;;;;-142.75;100.00;78931.19;5031361;28;20036;-69
2022/03/16 05:18:19;;;;;;;29.77;16.98;;;;;;;-142.75;100.00;78939.06;5029655;28;20118;-68
2022/03/16 05:20:45;;;;;;;27.30;15.90;;;;;;;-142.75;100.00;78943.00;5029964;28;20507;-71
2022/03/16 05:23:10;;;;;;;32.25;17.92;;;;;;;-142.75;100.00;78944.97;5031094;28;20025;-69
2022/03/16 05:25:35;;;;;;;31.33;16.65;;;;;;;-142.75;100.00;78944.97;5034718;22;20064;-66
2022/03/16 05:28:01;;;;;;;27.23;16.55;;;;;;;-142.75;100.00;78939.06;5009509;28;20181;-65
2022/03/16 05:30:27;;;;;;;30.63;17.50;;;;;;;-142.75;100.00;78941.03;5011993;28;20080;-66
2022/03/16 05:32:54;;;;;;;29.47;16.53;;;;;;;-142.75;100.00;78937.09;5012314;28;20025;-66
2022/03/16 05:35:20;;;;;;;31.47;16.83;;;;;;;-142.75;100.00;78941.03;5010978;28;20022;-66
2022/03/16 05:37:45;;;;;;;26.70;16.27;;;;;;;-142.75;100.00;78935.13;4999856;28;20049;-65
2022/03/16 05:40:11;;;;;;;29.65;16.65;;;;;;;-142.75;100.00;78937.09;4991234;28;20026;-65
2022/03/16 05:42:37;;;;;;;33.03;18.08;;;;;;;-142.75;100.00;78937.09;4992534;28;20041;-66
2022/03/16 05:45:03;;;;;;;30.30;18.27;;;;;;;-142.75;100.00;78941.03;4992490;28;20030;-66
2022/03/16 05:47:29;;;;;;;34.73;16.83;;;;;;;-142.75;100.00;78946.94;4992477;28;20072;-66
2022/03/16 05:49:55;;;;;;;37.67;19.30;;;;;;;-142.75;100.00;78948.91;4990955;28;20049;-66
2022/03/16 05:52:23;;;;;;;27.67;16.13;;;;;;;-142.75;100.00;78948.91;4991552;28;20080;-67
2022/03/16 05:54:53;;;;;;;19.90;11.67;;;;;;;-142.75;100.00;78956.78;4992502;28;20052;-66
2022/03/16 05:57:19;;;;;;;22.40;12.47;;;;;;;-142.75;100.00;78948.91;4992381;28;20046;-66
2022/03/16 05:59:45;;;;;;;15.90;9.30;;;;;;;-142.75;100.00;78950.88;4992142;28;20054;-66
2022/03/16 06:02:11;;;;;;;19.45;12.20;;;;;;;-142.75;100.00;78948.91;5011919;28;20026;-66
2022/03/16 06:04:38;;;;;;;20.40;11.53;;;;;;;-142.75;100.00;78956.78;5011722;28;20022;-66
2022/03/16 06:07:04;;;;;;;20.40;11.63;;;;;;;-142.75;100.00;78956.78;5011771;28;20014;-66
2022/03/16 06:09:30;;;;;;;23.50;12.60;;;;;;;-142.75;100.00;78960.72;5011346;28;20044;-66
2022/03/16 06:11:55;;;;;;;13.10;7.10;;;;;;;-142.75;100.00;78952.84;5011736;28;20108;-66
2022/03/16 06:14:20;;;;;;;7.22;4.95;;;;;;;-142.75;100.00;78952.84;5010299;28;20018;-66
2022/03/16 06:16:47;;;;;;;7.95;5.38;;;;;;;-142.75;100.00;78944.97;5011579;28;20026;-66
2022/03/16 06:19:12;;;;;;;10.50;6.37;;;;;;;-142.75;100.00;78948.91;5011312;28;20025;-66
2022/03/16 06:21:38;;;;;;;8.07;5.30;;;;;;;-142.75;100.00;78944.97;5011408;28;20060;-66
2022/03/16 06:24:03;;;;;;;6.85;5.22;;;;;;;-142.75;100.00;78939.06;5009894;28;20030;-66
2022/03/16 06:26:29;;;;;;;10.48;6.18;;;;;;;-142.75;100.00;78925.28;5011388;28;20026;-66
2022/03/16 06:28:54;;;;;;;8.73;4.90;;;;;;;-142.75;100.00;78917.41;5011232;28;20026;-66
2022/03/16 06:31:19;;;;;;;7.57;5.18;;;;;;;-142.75;100.00;78913.47;5011432;28;20685;-66
2022/03/16 06:33:44;;;;;;;9.00;5.97;;;;;;;-142.75;100.00;78909.53;5011275;28;20072;-66
2022/03/16 06:36:10;;;;;;;9.00;5.38;;;;;;;-142.75;100.00;78909.53;5010928;28;20494;-66
2022/03/16 06:38:35;;;;;;;10.93;6.60;;;;;;;-142.75;100.00;78901.66;5010953;28;20075;-65
2022/03/16 06:41:00;;;;;;;7.32;4.90;;;;;;;-142.75;100.00;78885.88;5011196;28;20021;-65
2022/03/16 06:43:25;;;;;;;9.70;5.30;;;;;;;-142.75;100.00;78876.03;5011095;28;20029;-66
2022/03/16 06:45:51;;;;;;;7.43;5.20;;;;;;;-142.75;100.00;78864.22;5011074;28;20021;-66
2022/03/16 06:48:21;;;;;;;7.35;4.70;;;;;;;-142.75;100.00;78840.59;5010926;28;20025;-66
2022/03/16 06:50:46;;;;;;;9.30;6.17;;;;;;;-142.75;100.00;78826.81;4991490;28;20472;-65
2022/03/16 06:53:12;;;;;;;8.90;5.95;;;;;;;-142.75;100.00;78807.09;4991393;28;20109;-66
2022/03/16 06:55:37;;;;;;;6.53;4.63;;;;;;;-142.75;100.00;78781.50;4991437;28;20021;-66
2022/03/16 06:58:03;;;;;;;9.50;5.90;;;;;;;-142.75;100.00;78763.78;4991173;28;20030;-66
2022/03/16 07:00:28;;;;;;;9.23;5.57;;;;;;;-142.75;100.00;78753.94;4991407;28;20476;-66
2022/03/16 07:03:02;;;;;;;9.02;5.50;;;;;;;-142.75;100.00;78736.19;4991413;28;20034;-66
2022/03/16 07:05:37;;;;;;;8.97;5.90;;;;;;;-142.75;100.00;78724.38;4991223;28;20085;-66
2022/03/16 07:08:06;;;;;;;9.87;5.57;;;;;;;-142.75;100.00;78732.25;5009643;28;20022;-66
2022/03/16 07:10:32;;;;;;;8.60;5.00;;;;;;;-142.75;100.00;78726.34;5010843;28;20021;-66
2022/03/16 07:12:58;;;;;;;11.53;6.43;;;;;;;-142.75;100.00;78718.47;5010986;28;20018;-66
2022/03/16 07:15:24;;;;;;;12.15;6.13;;;;;;;-142.75;100.00;78708.63;5009525;28;20487;-66
2022/03/16 07:17:50;;;;;;;9.37;5.03;;;;;;;-142.75;100.00;78700.75;5010692;28;20562;-66
2022/03/16 07:20:15;;;;;;;7.72;4.95;;;;;;;-142.75;100.00;78673.19;5010626;28;20117;-66
2022/03/16 07:22:41;;;;;;;5.82;3.97;;;;;;;-142.75;100.00;78665.28;5010794;28;20483;-66
2022/03/16 07:25:09;;;;;;;8.80;4.70;;;;;;;-142.75;100.00;78629.84;5010619;28;20052;-66
2022/03/16 07:27:36;;;;;;;8.90;5.30;;;;;;;-142.75;100.00;78614.09;5009508;28;20029;-66
2022/03/16 07:30:03;;;;;;;9.13;5.50;;;;;;;-142.75;100.00;78582.59;5010454;28;20030;-65
2022/03/16 07:32:29;;;;;;;9.03;4.97;;;;;;;-142.75;100.00;78570.75;5010633;28;20021;-65
2022/03/16 07:34:54;;;;;;;7.00;4.80;;;;;;;-142.75;100.00;78562.88;5010587;28;20081;-66
2022/03/16 07:37:19;;;;;;;7.32;4.75;;;;;;;-142.75;100.00;78562.88;5003323;28;20030;-66
2022/03/16 07:39:45;;;;;;;7.68;4.60;;;;;;;-142.75;100.00;78547.13;4992978;28;20055;-66
2022/03/16 07:42:10;;;;;;;6.32;4.35;;;;;;;-142.75;100.00;78535.31;4990077;28;20050;-66
2022/03/16 07:44:36;;;;;;;8.65;4.15;;;;;;;-142.75;100.00;78513.66;4997520;28;20044;-66
2022/03/16 07:47:02;;;;;;;7.30;4.70;;;;;;;-142.75;100.00;78505.78;5001105;28;20017;-66
2022/03/16 07:49:29;;;;;;;6.07;3.67;;;;;;;-142.75;100.00;78507.75;5000990;28;20268;-66
2022/03/16 07:51:55;;;;;;;5.53;3.93;;;;;;;-142.75;100.00;78509.72;5003300;28;20102;-67
2022/03/16 07:54:20;;;;;;;7.33;3.53;;;;;;;-142.75;100.00;78495.94;5004240;28;20046;-67
2022/03/16 07:56:46;;;;;;;9.07;5.00;;;;;;;-142.75;100.00;78495.94;5000732;28;20080;-66
2022/03/16 07:59:13;;;;;;;4.93;3.08;;;;;;;-142.75;100.00;78478.19;5005784;28;20491;-66
2022/03/16 08:01:39;;;;;;;6.30;3.93;;;;;;;-142.75;100.00;78486.06;5013343;28;20029;-66
2022/03/16 08:04:06;;;;;;;6.17;3.57;;;;;;;-142.75;100.00;78486.06;5012804;28;20029;-66
2022/03/16 08:06:31;;;;;;;7.37;4.33;;;;;;;-142.75;100.00;78452.59;5011917;28;20028;-66
2022/03/16 08:08:56;;;;;;;7.17;3.93;;;;;;;-142.75;100.00;78450.63;4998807;28;20097;-66
2022/03/16 08:11:22;;;;;;;7.13;4.27;;;;;;;-142.75;100.00;78478.19;4994759;28;20648;-66
2022/03/16 08:13:47;;;;;;;8.02;4.10;;;;;;;-142.75;100.00;78488.03;4991818;28;20014;-66
2022/03/16 08:16:13;;;;;;;6.80;3.58;;;;;;;-142.75;100.00;78495.94;4994689;28;20030;-67
2022/03/16 08:18:38;;;;;;;7.70;4.30;;;;;;;-142.75;100.00;78460.47;4993012;28;20508;-66
2022/03/16 08:21:05;;;;;;;7.53;4.07;;;;;;;-142.75;100.00;78434.88;4993518;28;20096;-66
2022/03/16 08:23:30;;;;;;;7.50;4.43;;;;;;;-142.75;100.00;78423.06;4993368;28;20034;-66
2022/03/16 08:25:57;;;;;;;6.18;3.08;;;;;;;-142.75;100.00;78373.81;4993057;28;20030;-66
2022/03/16 08:28:22;;;;;;;5.37;3.33;;;;;;;-142.75;100.00;78356.09;4993101;28;20045;-68
2022/03/16 08:30:48;;;;;;;6.18;3.53;;;;;;;-142.75;100.00;78332.47;4991846;28;20030;-66
2022/03/16 08:33:13;;;;;;;6.27;3.57;;;;;;;-142.75;100.00;78302.94;4993222;28;20122;-66
2022/03/16 08:35:39;;;;;;;6.40;3.20;;;;;;;-142.75;100.00;78275.34;4992969;28;20763;-66
2022/03/16 08:38:04;;;;;;;6.95;3.70;;;;;;;-142.75;100.00;78247.78;4992739;28;20281;-66
2022/03/16 08:40:29;;;;;;;6.63;3.87;;;;;;;-142.75;100.00;78243.84;4992994;28;20508;-66
2022/03/16 08:42:55;;;;;;;6.70;4.05;;;;;;;-142.75;100.00;78222.19;4992770;28;20284;-66
2022/03/16 08:45:20;;;;;;;10.25;3.78;;;;;;;-142.75;100.00;78222.19;4992255;28;20037;-67
2022/03/16 08:47:45;;;;;;;5.25;3.08;;;;;;;-142.75;100.00;78234.00;4991218;28;20026;-67
2022/03/16 08:50:11;;;;;;;5.03;2.90;;;;;;;-142.75;100.00;78194.63;4992229;28;20070;-67
2022/03/16 08:52:37;;;;;;;4.45;3.13;;;;;;;-142.75;100.00;78188.72;4992911;28;20501;-66
2022/03/16 08:55:05;;;;;;;5.43;3.20;;;;;;;-142.75;100.00;78169.00;4992719;28;20030;-66
2022/03/16 08:57:30;;;;;;;9.05;3.60;;;;;;;-142.75;100.00;78161.13;4992863;28;20025;-66
2022/03/16 08:59:56;;;;;;;6.45;3.20;;;;;;;-142.75;100.00;78131.59;4992365;28;20074;-66
2022/03/16 09:02:21;;;;;;;7.30;3.73;;;;;;;-142.75;100.00;78129.63;4993056;28;20030;-67
2022/03/16 09:04:46;;;;;;;7.70;2.95;;;;;;;-142.75;100.00;78141.44;4993023;28;20675;-66
2022/03/16 09:07:12;;;;;;;5.87;3.17;;;;;;;-142.75;100.00;78106.00;4992138;28;20076;-66
2022/03/16 09:09:38;;;;;;;4.97;3.13;;;;;;;-142.75;100.00;78111.91;4993107;28;20286;-66
2022/03/16 09:12:03;;;;;;;8.40;3.92;;;;;;;-142.75;100.00;78102.06;4994245;28;20274;-66
2022/03/16 09:14:28;;;;;;;6.00;3.35;;;;;;;-142.75;100.00;78100.09;4993570;28;20026;-66
2022/03/16 09:16:54;;;;;;;7.05;3.40;;;;;;;-142.75;100.00;78082.38;4993798;28;20659;-66
2022/03/16 09:19:22;;;;;;;6.85;3.42;;;;;;;-142.75;100.00;78019.34;4993540;28;20472;-67
2022/03/16 09:21:48;;;;;;;4.85;2.90;;;;;;;-142.75;100.00;78007.53;4992085;28;20027;-66
2022/03/16 09:24:14;;;;;;;;;;;;;;;-142.75;100.00;77999.66;4992943;28;20105;-67
2022/03/16 09:26:40;;;;;;;5.13;2.72;;;;;;;-142.75;100.00;77948.47;4993183;28;20419;-66
2022/03/16 09:29:08;;;;;;;5.00;2.65;;;;;;;-142.75;100.00;77944.53;5011459;28;20049;-66
2022/03/16 09:31:35;;;;;;;6.75;3.38;;;;;;;-142.75;100.00;77928.78;5012660;28;20064;-66
2022/03/16 09:34:01;;;;;;;7.30;3.05;;;;;;;-142.75;100.00;77946.50;5012730;28;20033;-66
2022/03/16 09:36:26;;;;;;;7.17;3.20;;;;;;;-142.75;100.00;77962.25;5012755;28;20022;-67
2022/03/16 09:38:51;;;;;;;5.30;3.03;;;;;;;-142.75;100.00;77962.25;5012125;28;20280;-67
2022/03/16 09:41:17;;;;;;;5.68;2.85;;;;;;;-142.75;100.00;77954.38;5012411;28;20029;-66
2022/03/16 09:43:43;;;;;;;4.63;2.50;;;;;;;-142.75;100.00;77928.78;5012602;28;20062;-66
2022/03/16 09:46:11;;;;;;;5.85;3.25;;;;;;;-142.75;100.00;77897.25;5012372;28;20034;-66
2022/03/16 09:48:38;;;;;;;7.20;3.53;;;;;;;-142.75;100.00;77865.75;5010654;28;20029;-65
2022/03/16 09:51:06;;;;;;;5.60;2.95;;;;;;;-142.75;100.00;77802.75;5012134;28;20484;-66
2022/03/16 09:53:31;;;;;;;6.57;3.03;;;;;;;-142.75;100.00;77826.38;4995597;28;20032;-66
2022/03/16 09:55:57;;;;;;;4.40;2.53;;;;;;;-142.75;100.00;77863.78;4991675;28;20022;-66
2022/03/16 09:58:23;;;;;;;5.40;2.78;;;;;;;-142.75;100.00;77846.06;4992037;28;20504;-65
2022/03/16 10:00:49;;;;;;;5.88;3.22;;;;;;;-142.75;100.00;77857.88;4991713;28;20080;-66
2022/03/16 10:03:15;;;;;;;5.50;2.97;;;;;;;-142.75;100.00;77826.38;4991897;28;20034;-66
2022/03/16 10:05:41;;;;;;;;;;;;;;;-142.75;100.00;77802.75;4991824;28;20057;-66
2022/03/16 10:08:08;;;;;;;5.53;3.33;;;;;;;-142.75;100.00;77828.34;4991234;28;19983;-66
2022/03/16 10:13:24;;;;;;;4.60;2.70;;;;;;;-142.75;100.00;77883.47;4991988;28;20088;-65
2022/03/16 10:15:55;;;;;;;5.30;2.60;;;;;;;-142.75;100.00;77897.25;4991423;28;20118;-65
2022/03/16 10:18:22;;;;;;;5.13;2.75;;;;;;;-142.75;100.00;77922.88;4991283;28;20022;-65
2022/03/16 10:20:48;;;;;;;4.97;2.45;;;;;;;-142.75;100.00;77944.53;4992334;28;20030;-66
2022/03/16 10:23:20;;;;;;;5.22;2.55;;;;;;;-142.75;100.00;77944.53;4992082;28;20403;-65
2022/03/16 10:25:52;;;;;;;5.15;3.00;;;;;;;-142.75;100.00;77916.97;4991593;28;20037;-65
2022/03/16 10:28:19;;;;;;;6.50;3.72;;;;;;;-142.75;100.00;77830.31;4991438;28;20109;-65
2022/03/16 10:30:58;;;;;;;6.93;3.25;;;;;;;-142.75;100.00;77779.13;4991673;28;20037;-65
2022/03/16 10:33:24;;;;;;;6.38;2.92;;;;;;;-142.75;100.00;77767.31;4991801;28;20029;-65
2022/03/16 10:35:55;;;;;;;4.72;3.00;;;;;;;-142.75;100.00;77751.56;5006786;28;20036;-65
2022/03/16 10:38:22;;;;;;;6.03;2.38;;;;;;;-142.75;100.00;77767.31;5010954;28;20087;-65
2022/03/16 10:40:48;;;;;;;5.63;3.10;;;;;;;-142.75;100.00;77775.19;5010840;28;20515;-64
2022/03/16 10:48:59;;;;;;;6.60;2.83;;;;;;;-142.75;100.00;77763.38;4999726;28;20127;-65
2022/03/16 10:51:25;;;;;;;4.97;2.60;;;;;;;-142.75;100.00;77712.16;4999709;28;20419;-65
2022/03/16 10:53:52;;;;;;;6.10;2.75;;;;;;;-142.75;100.00;77694.44;5003803;28;20137;-65
2022/03/16 10:56:18;;;;;;;5.60;2.90;;;;;;;-142.75;100.00;77727.94;4999483;28;20407;-65
2022/03/16 10:58:45;;;;;;;6.55;3.05;;;;;;;-142.75;100.00;77798.81;5000575;28;20030;-65
2022/03/16 11:01:12;;;;;;;5.25;2.50;;;;;;;-142.75;100.00;77802.75;5000810;28;20112;-65
2022/03/16 11:03:41;;;;;;;4.75;3.05;;;;;;;-142.75;100.00;77802.75;4999617;28;20018;-65
2022/03/16 11:06:08;;;;;;;5.57;2.88;;;;;;;-142.75;100.00;77804.72;5000997;28;20021;-66